createdAt,value
2023-08-12T00:00:24.829Z,23.7
2023-08-12T00:06:17.612Z,23.6
2023-08-12T00:11:24.387Z,23.8
2023-08-12T00:16:24.758Z,23.9
2023-08-12T00:22:17.593Z,23.7
2023-08-12T00:27:17.606Z,23.4
2023-08-12T00:32:24.779Z,23.4
2023-08-12T00:37:26.085Z,23.5
2023-08-12T00:43:17.610Z,23.6
2023-08-12T00:48:24.961Z,23.5
2023-08-12T00:53:25.093Z,23.5
2023-08-12T00:59:17.538Z,23.4
2023-08-12T01:04:17.667Z,23.3
2023-08-12T01:09:17.570Z,23.3
2023-08-12T01:14:17.557Z,23.1
2023-08-12T01:19:24.351Z,22.8
2023-08-12T01:24:24.508Z,22.7
2023-08-12T01:29:25.269Z,22.8
2023-08-12T01:34:26.799Z,22.8
2023-08-12T01:40:17.601Z,22.8
2023-08-12T01:45:24.380Z,22.9
2023-08-12T01:50:24.714Z,22.9
2023-08-12T01:55:25.060Z,22.9
2023-08-12T02:01:17.596Z,22.8
2023-08-12T02:06:25.078Z,22.5
2023-08-12T02:12:17.597Z,22.5
2023-08-12T02:17:24.454Z,22.5
2023-08-12T02:23:17.597Z,22.3
2023-08-12T02:28:24.810Z,21.7
2023-08-12T02:33:25.157Z,21.5
2023-08-12T02:44:24.957Z,21.9
2023-08-12T02:49:25.677Z,21.9
2023-08-12T02:55:17.640Z,21.8
2023-08-12T03:00:24.508Z,21.6
2023-08-12T03:05:25.367Z,21.5
2023-08-12T03:10:26.594Z,21.6
2023-08-12T03:16:17.700Z,21.6
2023-08-12T03:21:25.226Z,21.5
2023-08-12T03:26:25.281Z,21.3
2023-08-12T03:32:17.626Z,21.4
2023-08-12T03:37:24.579Z,21.6
2023-08-12T03:43:17.657Z,21.6
2023-08-12T03:48:24.410Z,21.3
2023-08-12T03:54:17.609Z,21.2
2023-08-12T04:04:17.630Z,20.8
2023-08-12T04:09:24.411Z,21
2023-08-12T04:14:24.424Z,21.2
2023-08-12T04:19:24.536Z,20.9
2023-08-12T04:25:17.621Z,21
2023-08-12T04:30:17.630Z,21
2023-08-12T04:35:17.693Z,21
2023-08-12T04:40:24.937Z,20.9
2023-08-12T04:46:17.641Z,20.9
2023-08-12T04:51:25.100Z,21.1
2023-08-12T04:57:17.611Z,21.2
2023-08-12T05:02:17.754Z,21.2
2023-08-12T05:07:17.669Z,21.4
2023-08-12T05:12:24.938Z,21.1
2023-08-12T05:18:17.639Z,20.8
2023-08-12T05:23:25.084Z,21.1
2023-08-12T05:28:24.878Z,21.1
2023-08-12T05:34:17.705Z,21.4
2023-08-12T05:39:24.790Z,21.8
2023-08-12T05:44:25.104Z,22.2
2023-08-12T05:49:25.186Z,22.9
2023-08-12T05:55:17.648Z,23
2023-08-12T06:00:17.669Z,23.2
2023-08-12T06:05:17.701Z,23.3
2023-08-12T06:10:24.825Z,23.5
2023-08-12T06:15:24.977Z,23.5
2023-08-12T06:20:25.140Z,23.3
2023-08-12T06:26:17.658Z,23.2
2023-08-12T06:31:17.746Z,22.8
2023-08-12T06:36:24.563Z,22.5
2023-08-12T06:41:24.963Z,22.4
2023-08-12T06:46:25.000Z,22.4
2023-08-12T06:52:17.728Z,22.4
2023-08-12T06:57:24.459Z,22.5
2023-08-12T07:02:24.770Z,22.5
2023-08-12T07:07:25.150Z,22.6
2023-08-12T07:13:17.720Z,22.5
2023-08-12T07:18:17.744Z,22.5
2023-08-12T07:23:24.606Z,23
2023-08-12T07:29:17.812Z,23.2
2023-08-12T07:34:26.076Z,23.6
2023-08-12T07:40:17.761Z,23.7
2023-08-12T07:45:25.067Z,23.5
2023-08-12T07:51:17.817Z,23.6
2023-08-12T07:56:24.919Z,23.6
2023-08-12T08:02:17.788Z,24.1
2023-08-12T08:07:17.774Z,24.6
2023-08-12T08:12:17.750Z,24.7
2023-08-12T08:17:17.788Z,25
2023-08-12T08:22:24.488Z,25.6
2023-08-12T08:27:25.291Z,25.7
2023-08-12T08:33:17.759Z,25.8
2023-08-12T08:38:24.485Z,25.8
2023-08-12T08:43:24.516Z,25.8
2023-08-12T08:49:17.744Z,25.7
2023-08-12T08:54:17.766Z,26.5
2023-08-12T08:59:17.780Z,26.6
2023-08-12T09:04:17.790Z,26.7
2023-08-12T09:14:24.584Z,26.9
2023-08-12T09:20:17.803Z,26.9
2023-08-12T09:25:17.816Z,26.4
2023-08-12T09:30:24.585Z,26.6
2023-08-12T09:36:17.774Z,26.7
2023-08-12T09:41:24.534Z,26.8
2023-08-12T09:46:24.959Z,26.7
2023-08-12T09:51:25.018Z,26.5
2023-08-12T09:56:25.089Z,26.1
2023-08-12T10:01:25.405Z,26.2
2023-08-12T10:07:17.738Z,26.2
2023-08-12T10:12:19.625Z,26.4
2023-08-12T10:17:41.193Z,26.4
2023-08-12T10:22:25.074Z,26.7
2023-08-12T10:28:17.849Z,26.8
2023-08-12T10:33:24.531Z,26.9
2023-08-12T10:38:24.608Z,26.9
2023-08-12T10:43:25.326Z,27.1
2023-08-12T10:48:26.381Z,27.2
2023-08-12T10:59:24.557Z,26.2
2023-08-12T11:04:24.783Z,25.9
2023-08-12T11:10:17.799Z,26.2
2023-08-12T11:15:17.775Z,26.5
2023-08-12T11:20:17.820Z,26.8
2023-08-12T11:25:24.618Z,26.3
2023-08-12T11:30:25.061Z,26.3
2023-08-12T11:35:25.150Z,26
2023-08-12T11:41:17.786Z,25.6
2023-08-12T11:46:24.830Z,25.7
2023-08-12T11:51:25.528Z,26
2023-08-12T11:57:17.778Z,26.3
2023-08-12T12:02:17.806Z,26.4
2023-08-12T12:07:17.831Z,26.7
2023-08-12T12:12:24.636Z,27
2023-08-12T12:18:17.838Z,26.7
2023-08-12T12:23:24.656Z,27.2
2023-08-12T12:39:25.066Z,26.7
2023-08-12T12:44:25.097Z,26.6
2023-08-12T12:50:17.862Z,26.8
2023-08-12T12:55:24.587Z,26.9
2023-08-12T13:00:24.641Z,26.6
2023-08-12T13:06:17.879Z,26.9
2023-08-12T13:11:17.820Z,27
2023-08-12T13:16:25.591Z,26.8
2023-08-12T13:22:17.874Z,26.9
2023-08-12T13:27:25.051Z,27
2023-08-12T13:32:26.188Z,26.9
2023-08-12T13:38:17.874Z,27.2
2023-08-12T13:43:25.109Z,27.3
2023-08-12T13:49:17.821Z,27.7
2023-08-12T13:59:24.649Z,28.7
2023-08-12T14:05:17.949Z,28
2023-08-12T14:10:25.107Z,27.8
2023-08-12T14:16:17.856Z,27.4
2023-08-12T14:21:17.841Z,27.3
2023-08-12T14:31:17.910Z,28
2023-08-12T14:41:25.495Z,28.2
2023-08-12T14:47:17.845Z,28.1
2023-08-12T14:52:17.924Z,28
2023-08-12T14:57:17.939Z,28.1
2023-08-12T15:02:24.875Z,28
2023-08-12T15:08:17.887Z,27.9
2023-08-12T15:13:17.905Z,28.1
2023-08-12T15:18:24.723Z,27.9
2023-08-12T15:23:25.156Z,28
2023-08-12T15:29:17.940Z,27.8
2023-08-12T15:34:25.432Z,26.8
2023-08-12T15:40:17.945Z,27
2023-08-12T15:45:24.704Z,27.1
2023-08-12T15:50:24.727Z,27.2
2023-08-12T15:55:25.102Z,27.2
2023-08-12T16:00:25.271Z,27.2
2023-08-12T16:06:17.936Z,27.2
2023-08-12T16:11:24.730Z,27.3
2023-08-12T16:16:25.728Z,27
2023-08-12T16:22:17.878Z,27
2023-08-12T16:27:17.913Z,27.3
2023-08-12T16:32:24.996Z,27.3
2023-08-12T16:37:25.452Z,27.3
2023-08-12T16:43:17.930Z,27.3
2023-08-12T16:48:17.991Z,27.1
2023-08-12T16:53:25.344Z,27
2023-08-12T16:58:25.532Z,26.7
2023-08-12T17:04:18.133Z,26.6
2023-08-12T17:09:24.831Z,26.4
2023-08-12T17:14:31.764Z,26
2023-08-12T17:20:17.915Z,26.1
2023-08-12T17:25:17.956Z,26.1
2023-08-12T17:30:17.991Z,26.1
2023-08-12T17:35:25.390Z,26.1
2023-08-12T17:41:17.985Z,26
2023-08-12T17:46:23.657Z,25.9
2023-08-12T17:51:24.709Z,25.9
2023-08-12T17:56:25.390Z,25.8
2023-08-12T18:02:17.914Z,25.8
2023-08-12T18:07:17.998Z,25.7
2023-08-12T18:12:25.066Z,25.5
2023-08-12T18:18:18.019Z,25.4
2023-08-12T18:23:18.010Z,25.4
2023-08-12T18:28:24.707Z,25.2
2023-08-12T18:33:25.512Z,25.2
2023-08-12T18:39:17.999Z,25.2
2023-08-12T18:44:24.739Z,25.1
2023-08-12T18:55:17.943Z,24.8
2023-08-12T19:00:24.749Z,24.8
2023-08-12T19:05:24.828Z,24.6
2023-08-12T19:11:17.942Z,24.5
2023-08-12T19:16:18.046Z,24.4
2023-08-12T19:21:25.315Z,24.4
2023-08-12T19:27:17.973Z,24.3
2023-08-12T19:32:25.412Z,24.2
2023-08-12T19:37:25.580Z,24
2023-08-12T19:43:17.956Z,23.9
2023-08-12T19:48:17.967Z,23.7
2023-08-12T19:53:17.962Z,23.5
2023-08-12T19:58:17.962Z,23.4
2023-08-12T20:03:24.890Z,23.2
2023-08-12T20:08:24.848Z,23
2023-08-12T20:13:25.065Z,22.9
2023-08-12T20:18:25.530Z,22.7
2023-08-12T20:24:17.967Z,22.6
2023-08-12T20:29:17.987Z,22.5
2023-08-12T20:34:25.358Z,22.3
2023-08-12T20:40:17.989Z,22.3
2023-08-12T20:45:18.008Z,22.2
2023-08-12T20:50:24.836Z,22.1
2023-08-12T20:56:17.964Z,22
2023-08-12T21:01:18.094Z,21.9
2023-08-12T21:06:24.814Z,21.8
2023-08-12T21:12:18.016Z,21.8
2023-08-12T21:17:18.046Z,21.7
2023-08-12T21:22:24.820Z,21.5
2023-08-12T21:27:25.226Z,21.5
2023-08-12T21:32:25.404Z,21.6
2023-08-12T21:38:17.996Z,21.6
2023-08-12T21:43:18.036Z,21.6
2023-08-12T21:48:25.322Z,21.4
2023-08-12T21:54:18.045Z,21.4
2023-08-12T21:59:24.777Z,21.3
2023-08-12T22:04:25.483Z,21.3
2023-08-12T22:10:18.047Z,21.2
2023-08-12T22:15:24.928Z,21.2
2023-08-12T22:20:25.614Z,21.2
2023-08-12T22:26:18.098Z,21.1
2023-08-12T22:31:25.557Z,21.1
2023-08-12T22:37:18.001Z,21
2023-08-12T22:42:18.028Z,21
2023-08-12T22:47:24.901Z,20.9
2023-08-12T22:52:26.542Z,20.8
2023-08-12T22:58:18.010Z,20.8
2023-08-12T23:03:25.676Z,20.7
2023-08-12T23:09:18.036Z,20.6
2023-08-12T23:14:24.841Z,20.4
2023-08-12T23:20:18.103Z,20.2
2023-08-12T23:25:24.894Z,20.1
2023-08-12T23:31:18.092Z,20.3
2023-08-12T23:36:18.055Z,20.2
2023-08-12T23:41:24.824Z,20.3
2023-08-12T23:46:25.280Z,20.3
2023-08-12T23:52:18.094Z,20.2
2023-08-12T23:57:18.100Z,20.1
